sensor_id;sensor_type;location;lat;lon;timestamp;P1;durP1;ratioP1;P2;durP2;ratioP2
44646;SDS011;56315;-33.902;151.160;2022-07-23T00:00:21;7.68;;;4.88;;
44646;SDS011;56315;-33.902;151.160;2022-07-23T00:02:49;9.48;;;5.45;;
44646;SDS011;56315;-33.902;151.160;2022-07-23T00:05:16;7.57;;;4.88;;
44646;SDS011;56315;-33.902;151.160;2022-07-23T00:07:43;11.13;;;5.88;;
44646;SDS011;56315;-33.902;151.160;2022-07-23T00:10:11;9.77;;;4.68;;
44646;SDS011;56315;-33.902;151.160;2022-07-23T00:12:38;8.68;;;4.57;;
44646;SDS011;56315;-33.902;151.160;2022-07-23T00:15:07;8.95;;;4.18;;
44646;SDS011;56315;-33.902;151.160;2022-07-23T00:17:35;6.47;;;3.78;;
44646;SDS011;56315;-33.902;151.160;2022-07-23T00:20:02;8.50;;;4.00;;
44646;SDS011;56315;-33.902;151.160;2022-07-23T00:22:30;9.80;;;5.22;;
44646;SDS011;56315;-33.902;151.160;2022-07-23T00:24:58;8.18;;;5.63;;
44646;SDS011;56315;-33.902;151.160;2022-07-23T00:27:25;5.57;;;3.20;;
44646;SDS011;56315;-33.902;151.160;2022-07-23T00:29:52;5.97;;;3.88;;
44646;SDS011;56315;-33.902;151.160;2022-07-23T00:32:20;7.78;;;3.83;;
44646;SDS011;56315;-33.902;151.160;2022-07-23T00:34:47;6.22;;;3.33;;
44646;SDS011;56315;-33.902;151.160;2022-07-23T00:37:14;6.82;;;3.22;;
44646;SDS011;56315;-33.902;151.160;2022-07-23T00:39:41;4.53;;;2.88;;
44646;SDS011;56315;-33.902;151.160;2022-07-23T00:42:09;7.65;;;3.42;;
44646;SDS011;56315;-33.902;151.160;2022-07-23T00:44:36;10.15;;;3.50;;
44646;SDS011;56315;-33.902;151.160;2022-07-23T00:47:03;6.75;;;4.05;;
44646;SDS011;56315;-33.902;151.160;2022-07-23T00:49:32;6.80;;;4.57;;
44646;SDS011;56315;-33.902;151.160;2022-07-23T00:52:00;9.75;;;3.97;;
44646;SDS011;56315;-33.902;151.160;2022-07-23T00:54:29;8.32;;;4.55;;
44646;SDS011;56315;-33.902;151.160;2022-07-23T00:56:56;9.25;;;4.50;;
44646;SDS011;56315;-33.902;151.160;2022-07-23T00:59:24;7.32;;;4.40;;
44646;SDS011;56315;-33.902;151.160;2022-07-23T01:01:51;9.25;;;5.28;;
44646;SDS011;56315;-33.902;151.160;2022-07-23T01:04:18;8.90;;;4.55;;
44646;SDS011;56315;-33.902;151.160;2022-07-23T01:06:46;9.10;;;4.88;;
44646;SDS011;56315;-33.902;151.160;2022-07-23T01:09:14;11.57;;;4.72;;
44646;SDS011;56315;-33.902;151.160;2022-07-23T01:11:41;7.70;;;4.20;;
44646;SDS011;56315;-33.902;151.160;2022-07-23T01:14:13;9.25;;;4.75;;
44646;SDS011;56315;-33.902;151.160;2022-07-23T01:16:42;10.57;;;4.88;;
44646;SDS011;56315;-33.902;151.160;2022-07-23T01:19:11;7.70;;;3.28;;
44646;SDS011;56315;-33.902;151.160;2022-07-23T01:21:40;7.88;;;4.25;;
44646;SDS011;56315;-33.902;151.160;2022-07-23T01:24:09;7.72;;;4.25;;
44646;SDS011;56315;-33.902;151.160;2022-07-23T01:26:39;9.35;;;4.28;;
44646;SDS011;56315;-33.902;151.160;2022-07-23T01:29:10;8.52;;;3.95;;
44646;SDS011;56315;-33.902;151.160;2022-07-23T01:31:38;5.68;;;3.47;;
44646;SDS011;56315;-33.902;151.160;2022-07-23T01:34:06;7.72;;;3.70;;
44646;SDS011;56315;-33.902;151.160;2022-07-23T01:36:34;8.48;;;2.80;;
44646;SDS011;56315;-33.902;151.160;2022-07-23T01:39:02;7.28;;;3.08;;
44646;SDS011;56315;-33.902;151.160;2022-07-23T01:41:30;7.25;;;2.90;;
44646;SDS011;56315;-33.902;151.160;2022-07-23T01:43:58;5.75;;;2.42;;
44646;SDS011;56315;-33.902;151.160;2022-07-23T01:46:26;6.45;;;2.08;;
44646;SDS011;56315;-33.902;151.160;2022-07-23T01:48:53;3.72;;;2.10;;
44646;SDS011;56315;-33.902;151.160;2022-07-23T01:51:21;4.85;;;2.30;;
44646;SDS011;56315;-33.902;151.160;2022-07-23T01:53:48;4.95;;;2.30;;
44646;SDS011;56315;-33.902;151.160;2022-07-23T01:56:15;4.60;;;2.35;;
44646;SDS011;56315;-33.902;151.160;2022-07-23T01:58:44;5.95;;;2.33;;
44646;SDS011;56315;-33.902;151.160;2022-07-23T02:01:11;5.35;;;2.13;;
44646;SDS011;56315;-33.902;151.160;2022-07-23T02:03:39;6.53;;;1.63;;
44646;SDS011;56315;-33.902;151.160;2022-07-23T02:06:06;5.00;;;1.80;;
44646;SDS011;56315;-33.902;151.160;2022-07-23T02:08:34;4.40;;;2.17;;
44646;SDS011;56315;-33.902;151.160;2022-07-23T02:11:01;3.72;;;2.03;;
44646;SDS011;56315;-33.902;151.160;2022-07-23T02:13:29;4.07;;;1.67;;
44646;SDS011;56315;-33.902;151.160;2022-07-23T02:15:56;5.05;;;1.23;;
44646;SDS011;56315;-33.902;151.160;2022-07-23T02:18:23;5.03;;;1.33;;
44646;SDS011;56315;-33.902;151.160;2022-07-23T02:20:51;4.20;;;1.50;;
44646;SDS011;56315;-33.902;151.160;2022-07-23T02:23:18;4.35;;;1.17;;
44646;SDS011;56315;-33.902;151.160;2022-07-23T02:25:45;3.25;;;1.33;;
44646;SDS011;56315;-33.902;151.160;2022-07-23T02:28:13;2.97;;;1.00;;
44646;SDS011;56315;-33.902;151.160;2022-07-23T02:30:41;4.30;;;1.42;;
44646;SDS011;56315;-33.902;151.160;2022-07-23T02:33:08;4.90;;;1.48;;
44646;SDS011;56315;-33.902;151.160;2022-07-23T02:35:36;5.90;;;1.63;;
44646;SDS011;56315;-33.902;151.160;2022-07-23T02:38:03;4.10;;;1.48;;
44646;SDS011;56315;-33.902;151.160;2022-07-23T02:40:30;3.90;;;1.15;;
44646;SDS011;56315;-33.902;151.160;2022-07-23T02:42:58;4.38;;;1.40;;
44646;SDS011;56315;-33.902;151.160;2022-07-23T02:45:25;3.92;;;1.13;;
44646;SDS011;56315;-33.902;151.160;2022-07-23T02:47:52;3.22;;;0.85;;
44646;SDS011;56315;-33.902;151.160;2022-07-23T02:50:20;2.20;;;0.50;;
44646;SDS011;56315;-33.902;151.160;2022-07-23T02:52:47;7.22;;;1.35;;
44646;SDS011;56315;-33.902;151.160;2022-07-23T02:55:14;3.15;;;0.85;;
44646;SDS011;56315;-33.902;151.160;2022-07-23T02:57:42;6.32;;;1.08;;
44646;SDS011;56315;-33.902;151.160;2022-07-23T03:00:09;3.75;;;0.80;;
44646;SDS011;56315;-33.902;151.160;2022-07-23T03:02:37;3.53;;;1.00;;
44646;SDS011;56315;-33.902;151.160;2022-07-23T03:05:05;4.13;;;1.05;;
44646;SDS011;56315;-33.902;151.160;2022-07-23T03:07:32;2.83;;;0.50;;
44646;SDS011;56315;-33.902;151.160;2022-07-23T03:10:00;2.67;;;0.57;;
44646;SDS011;56315;-33.902;151.160;2022-07-23T03:12:27;3.00;;;0.60;;
44646;SDS011;56315;-33.902;151.160;2022-07-23T03:14:55;4.03;;;0.88;;
44646;SDS011;56315;-33.902;151.160;2022-07-23T03:17:22;2.22;;;0.68;;
44646;SDS011;56315;-33.902;151.160;2022-07-23T03:19:49;2.75;;;0.88;;
44646;SDS011;56315;-33.902;151.160;2022-07-23T03:22:17;3.47;;;0.60;;
44646;SDS011;56315;-33.902;151.160;2022-07-23T03:24:44;2.78;;;0.32;;
44646;SDS011;56315;-33.902;151.160;2022-07-23T03:27:21;1.30;;;0.57;;
44646;SDS011;56315;-33.902;151.160;2022-07-23T03:29:53;1.88;;;0.32;;
44646;SDS011;56315;-33.902;151.160;2022-07-23T03:32:22;1.67;;;0.50;;
44646;SDS011;56315;-33.902;151.160;2022-07-23T03:34:49;1.60;;;0.50;;
44646;SDS011;56315;-33.902;151.160;2022-07-23T03:37:18;2.90;;;1.50;;
44646;SDS011;56315;-33.902;151.160;2022-07-23T03:39:46;1.95;;;0.50;;
44646;SDS011;56315;-33.902;151.160;2022-07-23T03:42:13;1.08;;;0.50;;
44646;SDS011;56315;-33.902;151.160;2022-07-23T03:44:41;0.65;;;0.40;;
44646;SDS011;56315;-33.902;151.160;2022-07-23T03:47:08;0.95;;;0.50;;
44646;SDS011;56315;-33.902;151.160;2022-07-23T03:49:35;2.05;;;0.50;;
44646;SDS011;56315;-33.902;151.160;2022-07-23T03:52:03;1.63;;;0.70;;
44646;SDS011;56315;-33.902;151.160;2022-07-23T03:54:30;2.92;;;0.50;;
44646;SDS011;56315;-33.902;151.160;2022-07-23T03:56:58;3.10;;;1.10;;
44646;SDS011;56315;-33.902;151.160;2022-07-23T03:59:25;4.18;;;1.20;;
44646;SDS011;56315;-33.902;151.160;2022-07-23T04:01:52;2.55;;;0.98;;
44646;SDS011;56315;-33.902;151.160;2022-07-23T04:04:20;2.08;;;1.20;;
44646;SDS011;56315;-33.902;151.160;2022-07-23T04:06:47;2.42;;;1.15;;
44646;SDS011;56315;-33.902;151.160;2022-07-23T04:09:14;4.28;;;1.70;;
44646;SDS011;56315;-33.902;151.160;2022-07-23T04:11:42;5.35;;;1.77;;
44646;SDS011;56315;-33.902;151.160;2022-07-23T04:14:09;2.05;;;0.90;;
44646;SDS011;56315;-33.902;151.160;2022-07-23T04:16:36;2.78;;;1.02;;
44646;SDS011;56315;-33.902;151.160;2022-07-23T04:19:04;4.22;;;1.20;;
44646;SDS011;56315;-33.902;151.160;2022-07-23T04:21:31;2.25;;;1.00;;
44646;SDS011;56315;-33.902;151.160;2022-07-23T04:23:58;2.58;;;1.00;;
44646;SDS011;56315;-33.902;151.160;2022-07-23T04:26:26;1.88;;;0.65;;
44646;SDS011;56315;-33.902;151.160;2022-07-23T04:28:53;2.78;;;0.73;;
44646;SDS011;56315;-33.902;151.160;2022-07-23T04:31:20;3.90;;;1.40;;
44646;SDS011;56315;-33.902;151.160;2022-07-23T04:33:48;2.60;;;0.80;;
44646;SDS011;56315;-33.902;151.160;2022-07-23T04:36:15;2.38;;;0.70;;
44646;SDS011;56315;-33.902;151.160;2022-07-23T04:38:42;4.43;;;0.70;;
44646;SDS011;56315;-33.902;151.160;2022-07-23T04:41:10;2.55;;;1.23;;
44646;SDS011;56315;-33.902;151.160;2022-07-23T04:43:37;1.92;;;0.80;;
44646;SDS011;56315;-33.902;151.160;2022-07-23T04:46:04;2.50;;;0.80;;
44646;SDS011;56315;-33.902;151.160;2022-07-23T04:48:32;1.50;;;0.70;;
44646;SDS011;56315;-33.902;151.160;2022-07-23T04:50:59;2.83;;;0.95;;
44646;SDS011;56315;-33.902;151.160;2022-07-23T04:53:26;1.48;;;0.68;;
44646;SDS011;56315;-33.902;151.160;2022-07-23T04:55:57;3.38;;;1.20;;
44646;SDS011;56315;-33.902;151.160;2022-07-23T04:58:24;1.65;;;0.57;;
44646;SDS011;56315;-33.902;151.160;2022-07-23T05:00:51;2.95;;;0.85;;
44646;SDS011;56315;-33.902;151.160;2022-07-23T05:03:19;0.52;;;0.40;;
44646;SDS011;56315;-33.902;151.160;2022-07-23T05:05:46;1.42;;;0.80;;
44646;SDS011;56315;-33.902;151.160;2022-07-23T05:08:13;2.90;;;2.63;;
44646;SDS011;56315;-33.902;151.160;2022-07-23T05:10:41;3.78;;;2.22;;
44646;SDS011;56315;-33.902;151.160;2022-07-23T05:13:08;1.75;;;0.28;;
44646;SDS011;56315;-33.902;151.160;2022-07-23T05:15:36;2.13;;;0.45;;
44646;SDS011;56315;-33.902;151.160;2022-07-23T05:18:03;2.15;;;1.00;;
44646;SDS011;56315;-33.902;151.160;2022-07-23T05:20:30;1.77;;;0.70;;
44646;SDS011;56315;-33.902;151.160;2022-07-23T05:22:58;1.02;;;0.60;;
44646;SDS011;56315;-33.902;151.160;2022-07-23T05:25:25;3.83;;;3.38;;
44646;SDS011;56315;-33.902;151.160;2022-07-23T05:27:52;1.58;;;1.08;;
44646;SDS011;56315;-33.902;151.160;2022-07-23T05:30:20;1.27;;;1.17;;
44646;SDS011;56315;-33.902;151.160;2022-07-23T05:32:47;5.72;;;4.65;;
44646;SDS011;56315;-33.902;151.160;2022-07-23T05:35:14;3.75;;;1.20;;
44646;SDS011;56315;-33.902;151.160;2022-07-23T05:37:42;3.83;;;1.30;;
44646;SDS011;56315;-33.902;151.160;2022-07-23T05:40:10;4.63;;;1.20;;
44646;SDS011;56315;-33.902;151.160;2022-07-23T05:42:38;3.17;;;0.98;;
44646;SDS011;56315;-33.902;151.160;2022-07-23T05:45:08;3.08;;;1.08;;
44646;SDS011;56315;-33.902;151.160;2022-07-23T05:47:45;1.13;;;0.90;;
44646;SDS011;56315;-33.902;151.160;2022-07-23T05:50:14;2.15;;;1.27;;
44646;SDS011;56315;-33.902;151.160;2022-07-23T05:52:42;1.85;;;1.08;;
44646;SDS011;56315;-33.902;151.160;2022-07-23T05:55:10;3.40;;;1.25;;
44646;SDS011;56315;-33.902;151.160;2022-07-23T05:57:38;2.38;;;0.90;;
44646;SDS011;56315;-33.902;151.160;2022-07-23T06:00:07;3.50;;;1.10;;
44646;SDS011;56315;-33.902;151.160;2022-07-23T06:02:37;1.67;;;1.10;;
44646;SDS011;56315;-33.902;151.160;2022-07-23T06:05:05;1.48;;;0.90;;
44646;SDS011;56315;-33.902;151.160;2022-07-23T06:07:33;2.42;;;1.13;;
44646;SDS011;56315;-33.902;151.160;2022-07-23T06:10:01;5.25;;;1.20;;
44646;SDS011;56315;-33.902;151.160;2022-07-23T06:12:29;4.53;;;1.42;;
44646;SDS011;56315;-33.902;151.160;2022-07-23T06:14:57;1.52;;;1.15;;
44646;SDS011;56315;-33.902;151.160;2022-07-23T06:17:25;2.30;;;1.23;;
44646;SDS011;56315;-33.902;151.160;2022-07-23T06:19:53;2.30;;;1.10;;
44646;SDS011;56315;-33.902;151.160;2022-07-23T06:22:20;2.35;;;1.45;;
44646;SDS011;56315;-33.902;151.160;2022-07-23T06:24:48;3.85;;;1.90;;
44646;SDS011;56315;-33.902;151.160;2022-07-23T06:27:19;4.93;;;2.35;;
44646;SDS011;56315;-33.902;151.160;2022-07-23T06:29:46;4.43;;;2.88;;
44646;SDS011;56315;-33.902;151.160;2022-07-23T06:32:14;5.47;;;2.90;;
44646;SDS011;56315;-33.902;151.160;2022-07-23T06:34:41;6.55;;;2.58;;
44646;SDS011;56315;-33.902;151.160;2022-07-23T06:37:08;3.97;;;2.60;;
44646;SDS011;56315;-33.902;151.160;2022-07-23T06:39:36;3.80;;;2.00;;
44646;SDS011;56315;-33.902;151.160;2022-07-23T06:42:03;4.03;;;2.28;;
44646;SDS011;56315;-33.902;151.160;2022-07-23T06:44:30;3.53;;;2.30;;
44646;SDS011;56315;-33.902;151.160;2022-07-23T06:46:58;4.57;;;2.83;;
44646;SDS011;56315;-33.902;151.160;2022-07-23T06:49:25;6.40;;;3.00;;
44646;SDS011;56315;-33.902;151.160;2022-07-23T06:51:52;4.32;;;2.65;;
44646;SDS011;56315;-33.902;151.160;2022-07-23T06:54:20;6.32;;;3.50;;
44646;SDS011;56315;-33.902;151.160;2022-07-23T06:56:47;5.22;;;3.60;;
44646;SDS011;56315;-33.902;151.160;2022-07-23T06:59:14;4.80;;;4.30;;
44646;SDS011;56315;-33.902;151.160;2022-07-23T07:01:42;4.78;;;4.25;;
44646;SDS011;56315;-33.902;151.160;2022-07-23T07:04:09;6.80;;;5.40;;
44646;SDS011;56315;-33.902;151.160;2022-07-23T07:06:36;6.85;;;5.22;;
44646;SDS011;56315;-33.902;151.160;2022-07-23T07:09:04;7.18;;;4.63;;
44646;SDS011;56315;-33.902;151.160;2022-07-23T07:11:31;7.97;;;4.38;;
44646;SDS011;56315;-33.902;151.160;2022-07-23T07:13:58;5.68;;;4.47;;
44646;SDS011;56315;-33.902;151.160;2022-07-23T07:16:26;5.82;;;4.85;;
44646;SDS011;56315;-33.902;151.160;2022-07-23T07:18:53;8.05;;;4.18;;
44646;SDS011;56315;-33.902;151.160;2022-07-23T07:21:20;7.70;;;4.10;;
44646;SDS011;56315;-33.902;151.160;2022-07-23T07:23:48;6.40;;;3.15;;
44646;SDS011;56315;-33.902;151.160;2022-07-23T07:26:15;6.60;;;3.38;;
44646;SDS011;56315;-33.902;151.160;2022-07-23T07:28:42;5.93;;;3.70;;
44646;SDS011;56315;-33.902;151.160;2022-07-23T07:31:10;5.53;;;3.40;;
44646;SDS011;56315;-33.902;151.160;2022-07-23T07:33:37;5.78;;;4.05;;
44646;SDS011;56315;-33.902;151.160;2022-07-23T07:36:04;10.07;;;4.20;;
44646;SDS011;56315;-33.902;151.160;2022-07-23T07:38:32;8.52;;;5.32;;
44646;SDS011;56315;-33.902;151.160;2022-07-23T07:40:59;6.03;;;4.97;;
44646;SDS011;56315;-33.902;151.160;2022-07-23T07:43:27;6.63;;;5.60;;
44646;SDS011;56315;-33.902;151.160;2022-07-23T07:45:54;8.05;;;6.43;;
44646;SDS011;56315;-33.902;151.160;2022-07-23T07:48:21;7.25;;;6.20;;
44646;SDS011;56315;-33.902;151.160;2022-07-23T07:50:49;9.55;;;7.00;;
44646;SDS011;56315;-33.902;151.160;2022-07-23T07:53:16;7.00;;;6.30;;
44646;SDS011;56315;-33.902;151.160;2022-07-23T07:55:43;9.18;;;7.13;;
44646;SDS011;56315;-33.902;151.160;2022-07-23T07:58:11;9.30;;;7.18;;
44646;SDS011;56315;-33.902;151.160;2022-07-23T08:00:38;8.73;;;7.90;;
44646;SDS011;56315;-33.902;151.160;2022-07-23T08:03:05;10.13;;;8.23;;
44646;SDS011;56315;-33.902;151.160;2022-07-23T08:05:33;9.23;;;8.02;;
44646;SDS011;56315;-33.902;151.160;2022-07-23T08:08:01;8.32;;;7.22;;
44646;SDS011;56315;-33.902;151.160;2022-07-23T08:10:28;9.13;;;7.97;;
44646;SDS011;56315;-33.902;151.160;2022-07-23T08:12:57;10.63;;;7.78;;
44646;SDS011;56315;-33.902;151.160;2022-07-23T08:15:27;8.85;;;7.40;;
44646;SDS011;56315;-33.902;151.160;2022-07-23T08:17:55;9.05;;;6.88;;
44646;SDS011;56315;-33.902;151.160;2022-07-23T08:20:23;7.20;;;5.78;;
44646;SDS011;56315;-33.902;151.160;2022-07-23T08:22:53;8.55;;;6.30;;
44646;SDS011;56315;-33.902;151.160;2022-07-23T08:25:23;8.25;;;6.63;;
44646;SDS011;56315;-33.902;151.160;2022-07-23T08:27:55;7.20;;;6.50;;
44646;SDS011;56315;-33.902;151.160;2022-07-23T08:30:23;8.70;;;6.35;;
44646;SDS011;56315;-33.902;151.160;2022-07-23T08:32:52;7.47;;;6.43;;
44646;SDS011;56315;-33.902;151.160;2022-07-23T08:35:23;7.80;;;7.10;;
44646;SDS011;56315;-33.902;151.160;2022-07-23T08:37:53;8.45;;;7.60;;
44646;SDS011;56315;-33.902;151.160;2022-07-23T08:40:21;9.55;;;8.05;;
44646;SDS011;56315;-33.902;151.160;2022-07-23T08:42:49;8.20;;;7.40;;
44646;SDS011;56315;-33.902;151.160;2022-07-23T08:45:18;7.82;;;7.03;;
44646;SDS011;56315;-33.902;151.160;2022-07-23T08:47:53;10.05;;;8.20;;
44646;SDS011;56315;-33.902;151.160;2022-07-23T08:50:24;10.55;;;8.15;;
44646;SDS011;56315;-33.902;151.160;2022-07-23T08:52:54;9.82;;;8.30;;
44646;SDS011;56315;-33.902;151.160;2022-07-23T08:55:23;9.75;;;7.43;;
44646;SDS011;56315;-33.902;151.160;2022-07-23T08:57:51;11.10;;;9.05;;
44646;SDS011;56315;-33.902;151.160;2022-07-23T09:00:20;9.88;;;8.50;;
44646;SDS011;56315;-33.902;151.160;2022-07-23T09:02:48;12.02;;;8.88;;
44646;SDS011;56315;-33.902;151.160;2022-07-23T09:05:16;13.50;;;12.10;;
44646;SDS011;56315;-33.902;151.160;2022-07-23T09:10:48;21.67;;;19.40;;
44646;SDS011;56315;-33.902;151.160;2022-07-23T09:16:11;23.02;;;20.80;;
44646;SDS011;56315;-33.902;151.160;2022-07-23T09:18:42;19.92;;;17.98;;
44646;SDS011;56315;-33.902;151.160;2022-07-23T09:21:24;16.25;;;14.75;;
44646;SDS011;56315;-33.902;151.160;2022-07-23T09:24:05;17.25;;;15.70;;
44646;SDS011;56315;-33.902;151.160;2022-07-23T09:26:40;16.02;;;14.43;;
44646;SDS011;56315;-33.902;151.160;2022-07-23T09:29:11;15.43;;;13.95;;
44646;SDS011;56315;-33.902;151.160;2022-07-23T09:31:44;13.57;;;12.27;;
44646;SDS011;56315;-33.902;151.160;2022-07-23T09:34:18;13.60;;;12.20;;
44646;SDS011;56315;-33.902;151.160;2022-07-23T09:36:46;14.50;;;13.20;;
44646;SDS011;56315;-33.902;151.160;2022-07-23T09:39:15;18.27;;;16.48;;
44646;SDS011;56315;-33.902;151.160;2022-07-23T09:41:48;17.90;;;16.02;;
44646;SDS011;56315;-33.902;151.160;2022-07-23T09:44:16;14.88;;;13.48;;
44646;SDS011;56315;-33.902;151.160;2022-07-23T09:46:49;15.45;;;13.85;;
44646;SDS011;56315;-33.902;151.160;2022-07-23T09:49:23;13.38;;;12.00;;
44646;SDS011;56315;-33.902;151.160;2022-07-23T09:57:16;13.93;;;12.50;;
44646;SDS011;56315;-33.902;151.160;2022-07-23T09:59:43;15.50;;;13.93;;
44646;SDS011;56315;-33.902;151.160;2022-07-23T10:02:14;16.20;;;14.43;;
44646;SDS011;56315;-33.902;151.160;2022-07-23T10:04:42;15.45;;;13.85;;
44646;SDS011;56315;-33.902;151.160;2022-07-23T10:07:10;13.70;;;12.32;;
44646;SDS011;56315;-33.902;151.160;2022-07-23T10:09:40;14.88;;;12.93;;
44646;SDS011;56315;-33.902;151.160;2022-07-23T10:12:12;15.27;;;13.75;;
44646;SDS011;56315;-33.902;151.160;2022-07-23T10:14:46;15.20;;;13.02;;
44646;SDS011;56315;-33.902;151.160;2022-07-23T10:17:14;14.48;;;13.00;;
44646;SDS011;56315;-33.902;151.160;2022-07-23T10:19:42;16.27;;;12.70;;
44646;SDS011;56315;-33.902;151.160;2022-07-23T10:22:14;14.40;;;12.02;;
44646;SDS011;56315;-33.902;151.160;2022-07-23T10:24:59;15.15;;;12.52;;
44646;SDS011;56315;-33.902;151.160;2022-07-23T10:36:04;16.38;;;14.60;;
44646;SDS011;56315;-33.902;151.160;2022-07-23T10:41:42;15.93;;;14.35;;
44646;SDS011;56315;-33.902;151.160;2022-07-23T10:44:14;15.73;;;14.23;;
44646;SDS011;56315;-33.902;151.160;2022-07-23T10:53:29;23.73;;;21.33;;
44646;SDS011;56315;-33.902;151.160;2022-07-23T10:58:02;19.38;;;17.38;;
44646;SDS011;56315;-33.902;151.160;2022-07-23T11:00:35;16.83;;;15.02;;
44646;SDS011;56315;-33.902;151.160;2022-07-23T11:03:04;18.17;;;16.38;;
44646;SDS011;56315;-33.902;151.160;2022-07-23T11:05:51;17.25;;;14.75;;
44646;SDS011;56315;-33.902;151.160;2022-07-23T11:08:19;19.02;;;17.13;;
44646;SDS011;56315;-33.902;151.160;2022-07-23T11:11:07;16.98;;;15.02;;
44646;SDS011;56315;-33.902;151.160;2022-07-23T11:13:36;17.67;;;15.90;;
44646;SDS011;56315;-33.902;151.160;2022-07-23T11:16:06;16.60;;;14.93;;
44646;SDS011;56315;-33.902;151.160;2022-07-23T11:34:27;22.15;;;18.65;;
44646;SDS011;56315;-33.902;151.160;2022-07-23T11:37:02;18.38;;;16.48;;
44646;SDS011;56315;-33.902;151.160;2022-07-23T11:39:34;21.20;;;17.70;;
44646;SDS011;56315;-33.902;151.160;2022-07-23T11:42:03;21.67;;;17.77;;
44646;SDS011;56315;-33.902;151.160;2022-07-23T11:44:35;19.23;;;16.90;;
44646;SDS011;56315;-33.902;151.160;2022-07-23T11:47:08;20.48;;;18.40;;
44646;SDS011;56315;-33.902;151.160;2022-07-23T11:49:37;20.90;;;18.65;;
44646;SDS011;56315;-33.902;151.160;2022-07-23T11:52:06;21.38;;;18.48;;
44646;SDS011;56315;-33.902;151.160;2022-07-23T11:54:49;22.48;;;18.17;;
44646;SDS011;56315;-33.902;151.160;2022-07-23T11:57:32;19.80;;;16.35;;
44646;SDS011;56315;-33.902;151.160;2022-07-23T12:00:04;17.52;;;15.82;;
44646;SDS011;56315;-33.902;151.160;2022-07-23T12:02:44;17.50;;;15.40;;
44646;SDS011;56315;-33.902;151.160;2022-07-23T12:05:14;17.90;;;15.25;;
44646;SDS011;56315;-33.902;151.160;2022-07-23T12:07:43;15.68;;;14.07;;
44646;SDS011;56315;-33.902;151.160;2022-07-23T12:10:24;13.05;;;11.25;;
44646;SDS011;56315;-33.902;151.160;2022-07-23T12:12:58;15.07;;;12.90;;
44646;SDS011;56315;-33.902;151.160;2022-07-23T12:15:28;15.15;;;12.93;;
44646;SDS011;56315;-33.902;151.160;2022-07-23T12:18:03;16.88;;;13.60;;
44646;SDS011;56315;-33.902;151.160;2022-07-23T12:20:32;14.02;;;12.50;;
44646;SDS011;56315;-33.902;151.160;2022-07-23T12:23:11;13.40;;;12.10;;
44646;SDS011;56315;-33.902;151.160;2022-07-23T12:25:40;12.70;;;11.50;;
44646;SDS011;56315;-33.902;151.160;2022-07-23T12:28:13;12.93;;;11.60;;
44646;SDS011;56315;-33.902;151.160;2022-07-23T12:30:48;15.55;;;12.32;;
44646;SDS011;56315;-33.902;151.160;2022-07-23T12:36:06;14.05;;;11.52;;
44646;SDS011;56315;-33.902;151.160;2022-07-23T12:38:43;12.75;;;11.45;;
44646;SDS011;56315;-33.902;151.160;2022-07-23T12:41:16;13.00;;;10.02;;
44646;SDS011;56315;-33.902;151.160;2022-07-23T12:43:44;13.93;;;12.48;;
44646;SDS011;56315;-33.902;151.160;2022-07-23T12:46:16;10.88;;;9.68;;
44646;SDS011;56315;-33.902;151.160;2022-07-23T12:51:24;12.10;;;10.55;;
44646;SDS011;56315;-33.902;151.160;2022-07-23T12:54:07;12.55;;;11.20;;
44646;SDS011;56315;-33.902;151.160;2022-07-23T12:56:39;11.38;;;10.20;;
44646;SDS011;56315;-33.902;151.160;2022-07-23T12:59:11;10.68;;;9.68;;
44646;SDS011;56315;-33.902;151.160;2022-07-23T13:01:42;11.70;;;10.57;;
44646;SDS011;56315;-33.902;151.160;2022-07-23T13:04:15;14.07;;;12.00;;
44646;SDS011;56315;-33.902;151.160;2022-07-23T13:06:49;13.40;;;12.10;;
44646;SDS011;56315;-33.902;151.160;2022-07-23T13:09:19;13.57;;;11.15;;
44646;SDS011;56315;-33.902;151.160;2022-07-23T13:11:48;13.60;;;12.15;;
44646;SDS011;56315;-33.902;151.160;2022-07-23T13:14:18;13.27;;;11.88;;
44646;SDS011;56315;-33.902;151.160;2022-07-23T13:16:47;12.48;;;11.18;;
44646;SDS011;56315;-33.902;151.160;2022-07-23T13:19:15;16.88;;;14.02;;
44646;SDS011;56315;-33.902;151.160;2022-07-23T13:21:43;13.57;;;12.25;;
44646;SDS011;56315;-33.902;151.160;2022-07-23T13:24:11;13.38;;;11.65;;
44646;SDS011;56315;-33.902;151.160;2022-07-23T13:26:39;13.18;;;11.55;;
44646;SDS011;56315;-33.902;151.160;2022-07-23T13:29:07;11.95;;;10.85;;
44646;SDS011;56315;-33.902;151.160;2022-07-23T13:31:35;12.68;;;11.38;;
44646;SDS011;56315;-33.902;151.160;2022-07-23T13:34:03;12.15;;;10.90;;
44646;SDS011;56315;-33.902;151.160;2022-07-23T13:36:31;12.93;;;11.57;;
44646;SDS011;56315;-33.902;151.160;2022-07-23T13:38:58;14.48;;;12.68;;
44646;SDS011;56315;-33.902;151.160;2022-07-23T13:41:25;13.07;;;11.55;;
44646;SDS011;56315;-33.902;151.160;2022-07-23T13:43:53;12.60;;;11.30;;
44646;SDS011;56315;-33.902;151.160;2022-07-23T13:46:21;13.73;;;12.25;;
44646;SDS011;56315;-33.902;151.160;2022-07-23T13:48:49;12.68;;;11.50;;
44646;SDS011;56315;-33.902;151.160;2022-07-23T13:51:16;12.73;;;11.38;;
44646;SDS011;56315;-33.902;151.160;2022-07-23T13:53:43;12.98;;;11.63;;
44646;SDS011;56315;-33.902;151.160;2022-07-23T13:56:11;11.63;;;10.52;;
44646;SDS011;56315;-33.902;151.160;2022-07-23T13:58:39;13.23;;;11.85;;
44646;SDS011;56315;-33.902;151.160;2022-07-23T14:01:06;13.85;;;11.45;;
44646;SDS011;56315;-33.902;151.160;2022-07-23T14:03:33;11.48;;;10.38;;
44646;SDS011;56315;-33.902;151.160;2022-07-23T14:06:01;11.93;;;10.80;;
44646;SDS011;56315;-33.902;151.160;2022-07-23T14:08:28;10.70;;;9.55;;
44646;SDS011;56315;-33.902;151.160;2022-07-23T14:10:56;11.82;;;10.63;;
44646;SDS011;56315;-33.902;151.160;2022-07-23T14:13:23;11.20;;;9.98;;
44646;SDS011;56315;-33.902;151.160;2022-07-23T14:15:50;15.60;;;12.10;;
44646;SDS011;56315;-33.902;151.160;2022-07-23T14:18:18;13.35;;;11.95;;
44646;SDS011;56315;-33.902;151.160;2022-07-23T14:20:45;13.52;;;12.13;;
44646;SDS011;56315;-33.902;151.160;2022-07-23T14:23:12;14.43;;;13.02;;
44646;SDS011;56315;-33.902;151.160;2022-07-23T14:25:39;11.27;;;10.13;;
44646;SDS011;56315;-33.902;151.160;2022-07-23T14:28:07;12.50;;;11.32;;
44646;SDS011;56315;-33.902;151.160;2022-07-23T14:30:34;14.23;;;10.98;;
44646;SDS011;56315;-33.902;151.160;2022-07-23T14:33:02;12.68;;;11.38;;
44646;SDS011;56315;-33.902;151.160;2022-07-23T14:35:29;11.88;;;10.70;;
44646;SDS011;56315;-33.902;151.160;2022-07-23T14:37:57;15.15;;;13.20;;
44646;SDS011;56315;-33.902;151.160;2022-07-23T14:40:24;13.77;;;12.07;;
44646;SDS011;56315;-33.902;151.160;2022-07-23T14:42:52;12.63;;;11.32;;
44646;SDS011;56315;-33.902;151.160;2022-07-23T14:45:19;12.65;;;11.35;;
44646;SDS011;56315;-33.902;151.160;2022-07-23T14:47:46;12.68;;;11.38;;
44646;SDS011;56315;-33.902;151.160;2022-07-23T14:50:14;13.45;;;10.90;;
44646;SDS011;56315;-33.902;151.160;2022-07-23T14:52:41;13.02;;;11.80;;
44646;SDS011;56315;-33.902;151.160;2022-07-23T14:55:09;11.85;;;10.75;;
44646;SDS011;56315;-33.902;151.160;2022-07-23T14:57:36;14.20;;;11.85;;
44646;SDS011;56315;-33.902;151.160;2022-07-23T15:00:04;14.00;;;12.52;;